Newmarket on Fergus, Ireland
Current Conditions -  °F | °C
As of 5:30 PM on Thursday 30 Oct 2014 (Local Time) from EINN Reporting Station
Broken Clouds Broken Clouds  
Wind Chill: 59°   Ceiling: 1900
Heat Index: 59°   Visibility: 6mi
Dew Point: 55°   Wind: 10mph
Humidity: 88%   Direction: 130°SE
Pressure: 29.74"   Gusts: NA
Location:  52.76°N, 8.9°W
Report Text: EINN 301730Z 13009KT 9999 SCT016 BKN019 15/13 Q1007 NOSIG
Loading
Personal Weather Stations






























Interactive Weather Map
Tropical Storm Tracking
New forecast layout! Learn more

10-Day Weather Forecast

Advertisements
Track Severe Weather on mobile